Dobbiaco-Toblach Airstrip

LIVD · Trentino-Alto Adige, 意大利

罗盘
风向 的 风向 的 风向 到 风向 110° Dobbiaco-Toblach Airstrip 10/28
风: 8 kt, 3 beaufort

8 kt

2 kt
改变
0 ft 1.000 2.000 3.000 4.000 5.000
METAR LIVD 270055Z AUTO 11008KT 070V160 //// 01/M01 Q1009

METAR Dobbiaco-Toblach Airstrip - LIVD

Dobbiaco-Toblach Airstrip是,意大利中的小机场。 该机场位于纬度46,72698和经度12,23141。 该机场有一条跑道: 10/28. 本场的ICAO机场代码为LIVD。 机场在Milano FIR中。

该航空气象观测是针对Dobbiaco-Toblach Airstrip在2024年2月27日 01:55, 当地时间进行的。

机场观察

风向为110°,速度为8 kt。 风向在070°和160°之间变化。

温度为1 °C,阵风为-5 °C。 露点为-1 °C,相对湿度为87%。 海平面上的气压为1009 hPa (QNH)。

白天

今天,太阳从06:55升起,在17:52降落。 这适用于Dobbiaco-Toblach Airstrip,世界夏令时可能有所不同。 当地时间与世界标准时间之间的时差为+1 小时。 当前,没有夏令时有效。

公司介绍

我们没有关于这个机场的公司信息。

体会

到Vliegles.nl去找飞行课程,跳伞和其他飞行体验。 浏览页面,了解Dobbiaco-Toblach Airstrip附近所有可用的活动。 你也可以使用搜索功能来寻找你所在地附近的特定飞行课程、跳伞或其他飞行体验。

跑道

Id 标题 侧风 逆风 侧风 %
10/28 095°-275° 2 kt 8 kt 26 %

逆风成分最大的方向会被突出显示,并用于横风计算。 这并不一定意味着这个方向在使用。

温度 & 天气

温度 1 °C
露点 -1 °C
相对湿度 87%
风寒 -5 °C
Kp-index 3 (0-9)

白天

日出
06:55 (4:20)
中午
12:23
日落
17:52

小工具

你想在你的网站上有一个关于Dobbiaco-Toblach Airstrip的当前航空天气(METAR)的小部件吗?

显示HTML代码
?>